Impacts TAF Board INFO
FOR SITUATIONAL AWARENESS. NOT TO BE USED FOR FLIGHT PLANNING PURPOSES.
IDs:

KBWI - Baltimore-Washington, MD, US

Issued at 2339 UTC 17 Feb 2018
Updated at 0503 UTC 18 Feb 2018
Potential Impact None Slight Moderate High
Time<<19/06Z 19/07Z 19/08Z 19/09Z 19/10Z 19/11Z 19/12Z 19/13Z 19/14Z 19/15Z 19/16Z 19/17Z 19/18Z
Type
VIS
CIG
Cover
FltCat
WX
WDir
WSpd
WGst

Raw TAF
KBWI 172339Z 1800/1906 11005KT 2SM -SNRAPL BR OVC008
  FM180300 00000KT 3SM BR OVC008
  FM180800 28005KT 4SM BR SCT035
  FM180900 29006KT P6SM SCT130
  FM190200 15004KT P6SM FEW250


METAR Board
Radar Display
Forecast Discussion

FOR SITUATIONAL AWARENESS. NOT TO BE USED FOR FLIGHT PLANNING PURPOSES.